Time;durP1;ratioP1;P1;durP2;ratioP2;P2;SDS_P1;SDS_P2;PMS_P1;PMS_P2;Temp;Humidity;BMP_temperature;BMP_pressure;BME280_temperature;BME280_humidity;BME280_pressure;Samples;Min_cycle;Max_cycle;Signal;HPM_P1;HPM_P2
2021/05/06 00:33:56;;;;;;;1.20;0.42;;;;;;;13.00;53.44;99271.98;1668370;84;21117;-80
2021/05/06 00:36:23;;;;;;;0.47;0.23;;;;;;;13.00;53.35;99264.77;1637997;85;21206;-80
2021/05/06 00:38:54;;;;;;;2.22;0.42;;;;;;;13.01;53.32;99263.70;1654423;85;21624;-81
2021/05/06 00:55:02;;;;;;;0.80;0.45;;;;;;;12.81;53.43;99252.53;1664544;84;21231;-79
2021/05/06 00:57:33;;;;;;;1.37;0.55;;;;;;;12.78;53.60;99256.47;1639018;86;21163;-80
2021/05/06 01:00:11;;;;;;;1.25;0.50;;;;;;;12.75;53.49;99241.40;1624471;86;21337;-80
2021/05/06 01:07:58;;;;;;;0.87;0.43;;;;;;;12.64;54.10;99241.69;1669685;84;21223;-79
2021/05/06 01:10:34;;;;;;;1.00;0.70;;;;;;;12.57;54.34;99235.09;1671114;84;21256;-80
2021/05/06 01:12:52;;;;;;;1.57;0.90;;;;;;;12.51;54.40;99233.33;1686035;83;21161;-80
2021/05/06 01:15:21;;;;;;;1.23;0.50;;;;;;;12.49;54.66;99230.08;1688332;83;21207;-81
2021/05/06 01:17:48;;;;;;;1.87;0.45;;;;;;;12.48;54.88;99219.08;1684506;83;21326;-82
2021/05/06 01:20:16;;;;;;;2.13;0.40;;;;;;;12.44;55.00;99213.90;1692491;83;21184;-81
2021/05/06 01:22:44;;;;;;;1.65;0.88;;;;;;;12.44;55.03;99228.06;1680191;84;21602;-82
2021/05/06 01:25:13;;;;;;;3.47;0.70;;;;;;;12.42;55.10;99225.34;1697291;83;21821;-80
2021/05/06 01:32:43;;;;;;;3.77;1.30;;;;;;;12.36;55.36;99228.93;1678789;83;21224;-81
2021/05/06 01:35:15;;;;;;;4.53;0.70;;;;;;;12.27;55.63;99219.07;1637763;85;21228;-82
2021/05/06 01:38:09;;;;;;;3.22;0.72;;;;;;;12.26;55.64;99232.95;1637823;85;21218;-81
2021/05/06 02:01:16;;;;;;;2.63;0.57;;;;;;;12.18;55.59;99194.52;1742298;79;22486;-81
2021/05/06 02:03:44;;;;;;;0.57;0.57;;;;;;;12.12;55.73;99215.99;1695188;83;22050;-80
2021/05/06 02:06:11;;;;;;;2.57;0.67;;;;;;;12.05;55.97;99206.22;1695684;83;21186;-82
2021/05/06 02:08:39;;;;;;;3.50;0.93;;;;;;;12.09;55.54;99198.55;1689775;83;21671;-82
2021/05/06 02:11:12;;;;;;;1.13;0.50;;;;;;;12.09;55.54;99207.89;1690182;83;21178;-80
2021/05/06 02:14:21;;;;;;;0.97;0.50;;;;;;;12.07;55.65;99195.28;1775573;79;30276;-81
2021/05/06 02:16:50;;;;;;;0.82;0.47;;;;;;;12.20;55.36;99181.75;1743979;80;21162;-81
2021/05/06 02:19:28;;;;;;;0.88;0.60;;;;;;;12.32;54.82;99188.98;1691010;83;21161;-81
2021/05/06 02:21:47;;;;;;;3.00;0.62;;;;;;;12.21;55.07;99187.40;1697163;83;21706;-81
2021/05/06 02:24:14;;;;;;;0.82;0.50;;;;;;;12.14;55.40;99185.86;1661374;82;21114;-83
2021/05/06 02:26:41;;;;;;;4.73;1.13;;;;;;;11.98;55.61;99193.97;1662725;84;21330;-83
2021/05/06 02:29:08;;;;;;;2.17;0.50;;;;;;;11.99;55.71;99188.94;1672844;85;21731;-81
2021/05/06 02:31:35;;;;;;;3.17;0.93;;;;;;;11.98;55.75;99179.28;1656150;85;21757;-82
2021/05/06 02:34:02;;;;;;;2.63;0.70;;;;;;;11.98;55.60;99181.45;1655478;84;21060;-81
2021/05/06 02:36:31;;;;;;;1.13;0.30;;;;;;;11.93;55.80;99196.52;1659567;85;21654;-81
2021/05/06 02:39:00;;;;;;;1.87;0.70;;;;;;;11.91;55.92;99188.73;1670046;84;21199;-81
2021/05/06 02:41:27;;;;;;;1.13;0.67;;;;;;;11.86;56.01;99198.70;1662257;85;21207;-81
2021/05/06 02:43:55;;;;;;;1.57;0.40;;;;;;;11.81;56.14;99195.91;1669089;85;22313;-75
2021/05/06 02:46:26;;;;;;;1.27;0.77;;;;;;;11.81;56.14;99183.89;1650000;85;21215;-90
2021/05/06 02:48:53;;;;;;;0.50;0.50;;;;;;;11.80;56.17;99192.93;1659258;85;21259;-88
2021/05/06 02:51:26;;;;;;;3.50;0.63;;;;;;;11.76;56.42;99190.42;1656486;85;21209;-88
2021/05/06 02:53:52;;;;;;;2.67;0.60;;;;;;;11.75;56.57;99209.33;1659346;85;22193;-87
2021/05/06 02:56:29;;;;;;;1.20;0.63;;;;;;;11.76;56.50;99207.77;1630852;85;21159;-85
2021/05/06 02:59:01;;;;;;;0.77;0.73;;;;;;;11.70;56.64;99171.30;1619572;87;21217;-87
2021/05/06 03:04:09;;;;;;;0.87;0.60;;;;;;;11.67;56.63;99192.56;1745163;80;23023;-89
2021/05/06 03:12:11;;;;;;;0.70;0.70;;;;;;;11.61;56.80;99202.80;1741243;79;21072;-88
2021/05/06 03:23:01;;;;;;;2.33;1.07;;;;;;;11.78;56.57;99184.33;1752801;79;21141;-87
2021/05/06 03:25:30;;;;;;;3.63;0.80;;;;;;;12.18;55.60;99179.02;1735612;81;21618;-85
2021/05/06 03:28:06;;;;;;;0.87;0.83;;;;;;;12.51;54.69;99186.56;1690937;81;21150;-88
2021/05/06 03:42:01;;;;;;;3.70;0.50;;;;;;;13.21;52.36;99201.05;1770933;80;21212;-94
2021/05/06 04:36:18;;;;;;;3.55;0.50;;;;;;;13.60;51.69;99265.11;1589356;88;21255;-92
2021/05/06 04:38:42;;;;;;;2.02;0.98;;;;;;;13.42;52.07;99267.91;1587076;88;21252;-91
2021/05/06 04:44:58;;;;;;;6.08;1.87;;;;;;;13.18;52.72;99257.69;1590613;88;21239;-89
2021/05/06 04:50:15;;;;;;;2.15;0.93;;;;;;;13.20;53.00;99260.94;1579825;88;21252;-89
2021/05/06 04:54:45;;;;;;;1.12;0.68;;;;;;;13.60;52.20;99275.02;1576422;89;21236;-90
2021/05/06 04:57:34;;;;;;;4.67;0.95;;;;;;;13.73;51.75;99279.29;1608068;87;21811;-92
2021/05/06 05:05:02;;;;;;;4.35;0.42;;;;;;;13.64;51.85;99273.50;1603610;89;21191;-87
2021/05/06 05:07:38;;;;;;;2.08;0.82;;;;;;;13.51;52.25;99277.76;1582857;88;21237;-88
2021/05/06 05:13:11;;;;;;;2.75;0.62;;;;;;;13.39;52.59;99281.75;1602074;87;21123;-86
2021/05/06 05:18:28;;;;;;;1.22;0.98;;;;;;;13.23;53.24;99280.03;1608601;87;21152;-87
2021/05/06 05:21:18;;;;;;;1.27;0.68;;;;;;;13.21;53.15;99291.48;1603969;87;21379;-90
2021/05/06 05:23:51;;;;;;;6.87;1.05;;;;;;;13.23;53.33;99292.60;1643238;86;21318;-90
2021/05/06 05:26:15;;;;;;;3.65;0.60;;;;;;;13.19;53.34;99295.45;1655379;85;21702;-89
2021/05/06 05:28:43;;;;;;;10.28;1.15;;;;;;;13.22;53.42;99307.02;1658663;85;21355;-87
2021/05/06 05:31:11;;;;;;;5.30;1.22;;;;;;;13.23;53.67;99312.14;1650560;85;21374;-88
2021/05/06 05:33:47;;;;;;;3.72;1.15;;;;;;;13.26;53.52;99306.87;1640500;85;21235;-86
2021/05/06 05:38:52;;;;;;;3.62;1.00;;;;;;;13.32;53.58;99307.30;1651021;85;21742;-90
2021/05/06 05:41:56;;;;;;;1.02;0.88;;;;;;;13.31;53.66;99308.87;1655263;85;21188;-87
2021/05/06 05:45:24;;;;;;;2.52;1.05;;;;;;;13.12;53.86;99266.64;1779172;77;23049;-91
2021/05/06 05:55:34;;;;;;;0.78;0.60;;;;;;;13.32;54.01;99316.67;1673048;83;20629;-95
2021/05/06 05:58:05;;;;;;;2.62;1.22;;;;;;;13.29;54.22;99323.78;1664031;84;21329;-86
2021/05/06 06:00:49;;;;;;;2.25;0.95;;;;;;;13.35;54.39;99326.09;1671919;85;21666;-89
2021/05/06 06:17:13;;;;;;;4.08;0.95;;;;;;;13.54;53.99;99345.54;1668683;84;21723;-86
2021/05/06 06:19:47;;;;;;;1.10;0.85;;;;;;;13.57;54.01;99354.45;1678900;84;21627;-85
2021/05/06 06:22:11;;;;;;;6.85;1.30;;;;;;;13.64;54.08;99356.50;1675581;84;21192;-88
2021/05/06 06:24:38;;;;;;;4.15;1.40;;;;;;;13.71;54.30;99353.19;1630481;86;21244;-88
2021/05/06 06:27:05;;;;;;;1.92;1.25;;;;;;;13.76;53.88;99358.64;1641010;86;21446;-87
2021/05/06 06:29:34;;;;;;;3.55;1.62;;;;;;;13.77;53.94;99360.82;1641705;86;21247;-90
2021/05/06 06:32:10;;;;;;;3.47;1.22;;;;;;;13.78;53.75;99363.23;1639019;86;21220;-89
2021/05/06 06:34:35;;;;;;;3.35;2.17;;;;;;;13.76;53.80;99376.05;1650025;85;21124;-88
2021/05/06 06:37:03;;;;;;;2.30;1.42;;;;;;;13.74;53.90;99382.17;1653847;85;21247;-89
2021/05/06 06:39:31;;;;;;;3.15;1.35;;;;;;;13.73;54.15;99384.57;1642111;85;21160;-91
2021/05/06 06:42:00;;;;;;;6.17;1.75;;;;;;;13.73;54.21;99381.89;1649155;85;21220;-90
2021/05/06 06:44:36;;;;;;;3.25;1.75;;;;;;;13.76;54.29;99377.39;1659004;83;21077;-89
2021/05/06 06:47:06;;;;;;;6.47;1.95;;;;;;;13.80;54.62;99382.56;1649789;85;21208;-89
2021/05/06 06:49:37;;;;;;;5.55;1.47;;;;;;;13.82;54.44;99389.88;1644882;85;21208;-90
2021/05/06 06:52:08;;;;;;;5.37;2.65;;;;;;;13.85;54.36;99390.45;1654573;85;21200;-90
2021/05/06 06:54:36;;;;;;;6.08;2.12;;;;;;;13.90;54.24;99400.77;1642097;85;21635;-90
2021/05/06 06:57:08;;;;;;;4.53;1.50;;;;;;;13.99;54.33;99402.55;1648436;84;21194;-93
2021/05/06 06:59:38;;;;;;;5.17;2.77;;;;;;;14.08;54.22;99397.66;1654705;85;21391;-93
2021/05/06 07:02:07;;;;;;;3.35;1.90;;;;;;;14.14;54.23;99409.58;1631273;85;21143;-95
2021/05/06 07:04:34;;;;;;;7.45;2.45;;;;;;;14.18;54.27;99417.47;1630152;87;21186;-94
2021/05/06 07:07:02;;;;;;;5.25;2.42;;;;;;;14.20;54.18;99422.06;1619310;87;21229;-93
2021/05/06 07:09:29;;;;;;;3.37;2.17;;;;;;;14.26;54.23;99423.50;1622607;87;21232;-88
2021/05/06 07:11:57;;;;;;;11.43;2.22;;;;;;;14.24;55.51;99433.14;1628477;85;21112;-93
2021/05/06 07:14:30;;;;;;;5.45;2.40;;;;;;;14.14;56.08;99437.72;1630123;86;21289;-94
2021/05/06 07:17:01;;;;;;;4.97;2.77;;;;;;;14.07;56.76;99435.71;1620218;86;21370;-93
2021/05/06 07:19:34;;;;;;;3.17;2.25;;;;;;;13.96;57.50;99437.86;1637678;87;21156;-94
2021/05/06 07:22:04;;;;;;;4.03;1.95;;;;;;;13.86;57.96;99431.72;1633974;86;21387;-91
2021/05/06 07:24:59;;;;;;;2.25;2.05;;;;;;;13.79;59.29;99437.73;1613324;87;21240;-95
2021/05/06 07:27:33;;;;;;;3.95;1.50;;;;;;;13.64;59.73;99435.50;1639554;86;21196;-95
2021/05/06 07:30:09;;;;;;;1.30;1.20;;;;;;;13.63;59.87;99434.66;1608049;87;21221;-94
2021/05/06 07:32:37;;;;;;;2.40;1.15;;;;;;;13.62;59.71;99453.66;1634933;86;21211;-95
2021/05/06 07:35:07;;;;;;;2.12;1.40;;;;;;;13.52;59.97;99454.19;1636430;85;21130;-96
2021/05/06 07:37:37;;;;;;;2.22;1.22;;;;;;;13.42;61.05;99469.47;1641580;86;21198;-95
2021/05/06 07:40:11;;;;;;;1.57;0.82;;;;;;;13.33;61.14;99482.08;1633531;86;21221;-93
2021/05/06 07:42:40;;;;;;;1.22;0.60;;;;;;;13.27;61.56;99491.80;1636001;86;21397;-90
2021/05/06 07:45:13;;;;;;;1.00;0.78;;;;;;;13.24;61.80;99497.59;1637808;84;21068;-93
2021/05/06 07:47:47;;;;;;;1.65;0.30;;;;;;;13.26;61.92;99504.90;1634799;86;21614;-92
2021/05/06 07:50:18;;;;;;;0.40;0.40;;;;;;;13.33;62.64;99517.67;1630304;86;21211;-91
2021/05/06 07:53:03;;;;;;;;;;;;;;;;;;;;;
2021/05/06 07:55:36;;;;;;;1.65;0.62;;;;;;;13.18;61.66;99511.35;1796403;78;22344;-91
2021/05/06 07:58:05;;;;;;;0.68;0.30;;;;;;;13.05;61.83;99523.06;1726745;82;21178;-92
2021/05/06 08:00:36;;;;;;;0.23;0.23;;;;;;;12.98;62.26;99522.84;1727686;82;21255;-88
2021/05/06 08:03:08;;;;;;;0.65;0.20;;;;;;;12.88;62.57;99534.05;1699351;83;21208;-91
2021/05/06 08:05:37;;;;;;;1.25;0.30;;;;;;;12.79;62.54;99548.75;1686457;83;21220;-87
2021/05/06 08:08:05;;;;;;;0.55;0.40;;;;;;;12.64;63.20;99557.96;1626068;86;21249;-89
2021/05/06 08:10:35;;;;;;;1.65;0.25;;;;;;;12.53;62.84;99553.87;1608419;87;21682;-90
2021/05/06 08:13:02;;;;;;;0.93;0.20;;;;;;;12.26;62.89;99518.84;1631505;86;21655;-91
2021/05/06 08:15:31;;;;;;;0.65;0.10;;;;;;;12.58;63.83;99560.19;1626183;86;21207;-92
2021/05/06 08:17:59;;;;;;;0.20;0.10;;;;;;;12.61;62.99;99558.39;1651705;87;21220;-92
2021/05/06 08:20:26;;;;;;;0.10;0.10;;;;;;;12.59;62.57;99552.98;1664102;84;21180;-90
2021/05/06 08:22:54;;;;;;;1.65;0.10;;;;;;;12.58;61.79;99560.19;1665486;84;21127;-91
2021/05/06 08:25:23;;;;;;;0.40;0.10;;;;;;;12.58;61.38;99566.87;1662103;86;21393;-90
2021/05/06 08:27:50;;;;;;;5.45;0.10;;;;;;;12.61;61.06;99571.76;1654055;84;21338;-90
2021/05/06 08:30:18;;;;;;;0.30;0.10;;;;;;;12.61;60.78;99566.41;1654425;84;21237;-90
2021/05/06 08:32:45;;;;;;;2.20;0.10;;;;;;;12.66;62.00;99561.76;1662691;85;21216;-89
2021/05/06 08:35:13;;;;;;;0.20;0.20;;;;;;;12.72;61.42;99568.08;1639863;85;21351;-91
2021/05/06 08:37:43;;;;;;;0.85;0.30;;;;;;;12.77;61.61;99570.38;1636784;86;21784;-90
2021/05/06 08:40:11;;;;;;;0.42;0.28;;;;;;;12.82;60.79;99573.19;1635854;86;21205;-93
2021/05/06 08:42:40;;;;;;;0.90;0.20;;;;;;;12.97;59.65;99587.55;1619221;87;21237;-91
2021/05/06 08:45:09;;;;;;;2.08;0.10;;;;;;;12.98;59.53;99599.89;1608504;87;21276;-92
2021/05/06 08:47:38;;;;;;;1.20;0.53;;;;;;;12.94;59.45;99614.75;1610065;87;21663;-92
2021/05/06 08:50:09;;;;;;;0.45;0.25;;;;;;;12.88;59.34;99610.27;1636484;86;21200;-92
2021/05/06 08:52:40;;;;;;;5.25;0.98;;;;;;;12.84;59.72;99594.38;1629005;87;21213;-89
2021/05/06 08:55:08;;;;;;;0.95;0.10;;;;;;;12.81;58.99;99604.19;1631812;86;21647;-90
2021/05/06 08:57:36;;;;;;;1.75;0.10;;;;;;;12.75;58.69;99609.06;1680179;84;21184;-91
2021/05/06 09:00:05;;;;;;;3.83;0.42;;;;;;;12.71;58.17;99611.36;1655577;85;21161;-91
2021/05/06 09:02:33;;;;;;;3.47;0.17;;;;;;;12.68;58.51;99620.33;1657182;85;21235;-89
2021/05/06 09:05:08;;;;;;;3.20;0.30;;;;;;;12.63;59.45;99633.03;1657002;85;21608;-91
2021/05/06 09:07:45;;;;;;;2.80;0.40;;;;;;;12.62;59.07;99632.22;1650286;85;21195;-91
2021/05/06 09:10:41;;;;;;;1.50;0.50;;;;;;;12.66;58.35;99635.28;1797908;78;23574;-91
2021/05/06 09:13:27;;;;;;;2.10;0.72;;;;;;;12.63;58.86;99631.17;1723355;81;21613;-91
2021/05/06 09:15:55;;;;;;;7.55;2.70;;;;;;;12.71;59.22;99627.92;1719647;81;21601;-91
2021/05/06 09:18:44;;;;;;;0.88;0.30;;;;;;;12.82;58.61;99624.00;1721446;81;21172;-92
2021/05/06 09:21:29;;;;;;;1.10;0.70;;;;;;;12.95;58.27;99628.41;1694236;82;21186;-91
2021/05/06 09:24:25;;;;;;;0.68;0.37;;;;;;;13.07;57.76;99640.53;1697415;82;21197;-91
2021/05/06 09:26:59;;;;;;;2.02;0.82;;;;;;;13.16;57.56;99638.39;1714860;82;21225;-91
2021/05/06 09:29:38;;;;;;;3.77;0.40;;;;;;;13.23;57.60;99635.13;1712654;82;21190;-89
2021/05/06 09:32:22;;;;;;;1.57;0.30;;;;;;;13.37;57.40;99631.80;1796959;77;23165;-90
2021/05/06 09:34:56;;;;;;;1.95;0.30;;;;;;;12.82;56.62;99544.30;1706711;80;21201;-90
2021/05/06 09:37:29;;;;;;;5.58;0.35;;;;;;;13.47;55.58;99638.80;1693318;83;21247;-90
2021/05/06 09:40:10;;;;;;;0.70;0.50;;;;;;;13.65;55.20;99638.48;1760660;79;23578;-90
2021/05/06 09:42:43;;;;;;;0.62;0.30;;;;;;;13.78;55.81;99638.30;1735229;80;21698;-91
2021/05/06 09:45:23;;;;;;;0.30;0.20;;;;;;;14.00;55.36;99642.12;1711278;82;21525;-91
2021/05/06 09:48:20;;;;;;;1.20;0.62;;;;;;;14.24;54.73;99642.70;1672454;84;21669;-93
2021/05/06 09:51:00;;;;;;;1.80;0.47;;;;;;;14.43;53.00;99639.42;1669060;84;21203;-91
2021/05/06 09:53:34;;;;;;;4.40;1.32;;;;;;;14.56;53.44;99644.57;1821947;76;23015;-91
2021/05/06 09:56:04;;;;;;;0.65;0.40;;;;;;;14.65;53.35;99642.41;1789259;78;21097;-93
2021/05/06 09:58:33;;;;;;;0.65;0.50;;;;;;;14.78;52.59;99646.20;1748706;81;21200;-91
2021/05/06 10:01:13;;;;;;;0.60;0.30;;;;;;;14.88;51.83;99652.32;1740550;80;21389;-93
2021/05/06 10:03:40;;;;;;;0.95;0.30;;;;;;;14.88;50.73;99655.84;1739477;81;21381;-93
2021/05/06 10:08:49;;;;;;;2.20;0.40;;;;;;;15.02;50.47;99648.89;1844396;76;22670;-90
2021/05/06 10:11:20;;;;;;;0.50;0.30;;;;;;;15.10;47.88;99663.30;1814350;77;21218;-92
2021/05/06 10:13:49;;;;;;;0.90;0.33;;;;;;;15.10;46.98;99666.78;1779197;79;21887;-90
2021/05/06 10:16:17;;;;;;;2.15;0.20;;;;;;;15.09;47.18;99662.48;1765008;79;21184;-91
2021/05/06 10:18:46;;;;;;;0.85;0.20;;;;;;;15.10;47.16;99666.78;1767146;80;21179;-92
2021/05/06 10:21:18;;;;;;;1.02;0.62;;;;;;;15.19;47.27;99667.25;1756917;80;21195;-91
2021/05/06 10:23:51;;;;;;;3.98;1.77;;;;;;;15.29;46.80;99663.44;1753686;80;21282;-91
2021/05/06 10:26:19;;;;;;;3.02;0.50;;;;;;;15.43;46.84;99661.86;1749901;81;21172;-91
2021/05/06 10:28:51;;;;;;;3.60;0.60;;;;;;;15.59;46.12;99662.45;1747670;80;21161;-91
2021/05/06 10:31:20;;;;;;;0.93;0.40;;;;;;;15.75;45.70;99660.39;1743810;80;21690;-90
2021/05/06 10:33:48;;;;;;;0.78;0.20;;;;;;;15.84;44.57;99661.34;1715194;80;21864;-91
2021/05/06 10:36:17;;;;;;;1.45;0.20;;;;;;;15.86;44.26;99668.13;1688444;82;21162;-93
2021/05/06 10:38:47;;;;;;;0.62;0.30;;;;;;;15.88;43.12;99666.02;1711442;83;21309;-89
2021/05/06 10:41:30;;;;;;;2.72;0.30;;;;;;;15.85;42.60;99669.71;1713859;83;21335;-89
2021/05/06 10:44:29;;;;;;;1.37;0.70;;;;;;;15.87;43.11;99670.28;1794198;76;23469;-87
2021/05/06 10:49:01;;;;;;;1.40;0.30;;;;;;;15.88;41.19;99667.87;1764046;79;22923;-90
2021/05/06 10:51:48;;;;;;;0.93;0.68;;;;;;;15.84;41.19;99672.94;1733368;80;21752;-92
2021/05/06 10:54:32;;;;;;;1.22;0.20;;;;;;;15.94;41.18;99674.45;1731129;80;21195;-93
2021/05/06 10:57:05;;;;;;;0.72;0.30;;;;;;;15.94;40.54;99666.39;1703632;81;21139;-92
2021/05/06 10:59:42;;;;;;;0.93;0.60;;;;;;;15.88;41.09;99678.63;1687782;83;21202;-93
2021/05/06 11:02:44;;;;;;;2.95;0.30;;;;;;;15.85;41.03;99673.74;1621990;85;21128;-91
2021/05/06 11:05:17;;;;;;;2.17;0.20;;;;;;;15.85;40.66;99679.92;1629671;86;21363;-92
2021/05/06 11:08:08;;;;;;;0.42;0.20;;;;;;;15.82;40.49;99672.87;1631369;86;21641;-91
2021/05/06 11:10:47;;;;;;;4.20;0.40;;;;;;;15.81;40.23;99677.43;1618996;86;21199;-91
2021/05/06 11:13:33;;;;;;;0.95;0.30;;;;;;;15.86;39.94;99680.73;1649322;85;21231;-93
2021/05/06 11:20:16;;;;;;;0.65;0.10;;;;;;;16.05;38.61;99669.27;1591502;83;21255;-83
2021/05/06 11:22:53;;;;;;;1.17;0.10;;;;;;;16.13;37.56;99678.30;1691034;83;21353;-92
2021/05/06 11:25:41;;;;;;;0.10;0.10;;;;;;;16.19;36.05;99675.17;1717412;82;21317;-91
2021/05/06 11:28:22;;;;;;;0.72;0.10;;;;;;;16.20;36.55;99677.63;1716444;82;21188;-93
2021/05/06 11:30:53;;;;;;;0.20;0.10;;;;;;;16.24;36.66;99676.09;1717334;82;21360;-93
2021/05/06 11:33:25;;;;;;;0.42;0.10;;;;;;;16.30;36.44;99681.03;1718193;80;21229;-93
2021/05/06 11:36:12;;;;;;;1.95;0.10;;;;;;;16.40;37.14;99685.22;1756170;79;21152;-91
2021/05/06 11:38:57;;;;;;;1.45;0.23;;;;;;;16.60;35.84;99674.54;1807584;77;23048;-91
2021/05/06 11:41:33;;;;;;;4.72;0.10;;;;;;;16.62;35.75;99684.53;1808212;78;21132;-91
2021/05/06 11:44:05;;;;;;;2.50;0.20;;;;;;;16.69;35.70;99686.53;1815714;76;21281;-92
2021/05/06 11:46:38;;;;;;;0.20;0.10;;;;;;;16.69;36.08;99686.53;1785359;80;21199;-92
2021/05/06 11:49:13;;;;;;;1.65;0.10;;;;;;;16.69;36.95;99694.06;1790532;80;21305;-92
2021/05/06 11:51:44;;;;;;;5.28;1.17;;;;;;;16.72;35.98;99694.09;1782254;79;21190;-94
2021/05/06 11:54:22;;;;;;;2.00;0.60;;;;;;;16.67;36.30;99700.73;1761639;80;21172;-94
2021/05/06 11:57:00;;;;;;;1.52;0.30;;;;;;;16.65;36.41;99701.51;1735590;79;21115;-95
2021/05/06 11:59:33;;;;;;;1.02;0.25;;;;;;;16.67;36.73;99683.24;1705281;82;21183;-94
2021/05/06 12:02:08;;;;;;;0.57;0.10;;;;;;;16.64;36.46;99697.20;1704591;82;21181;-94
2021/05/06 12:04:37;;;;;;;0.43;0.10;;;;;;;16.62;36.82;99696.63;1714278;82;21356;-92
2021/05/06 12:07:19;;;;;;;1.15;0.10;;;;;;;16.69;36.67;99685.19;1711938;82;21401;-93
2021/05/06 12:09:48;;;;;;;0.40;0.10;;;;;;;16.77;36.13;99685.31;1718615;82;21202;-92
2021/05/06 12:12:28;;;;;;;0.50;0.20;;;;;;;16.87;36.51;99683.59;1713384;81;21107;-93
2021/05/06 12:14:58;;;;;;;0.13;0.05;;;;;;;16.48;34.25;99604.15;1703616;82;21187;-94
2021/05/06 12:17:31;;;;;;;0.33;0.10;;;;;;;17.00;33.65;99683.80;1681969;85;21677;-94
2021/05/06 12:20:04;;;;;;;1.32;0.10;;;;;;;17.01;33.66;99690.83;1639712;86;21184;-96
2021/05/06 12:22:35;;;;;;;0.35;0.10;;;;;;;17.05;33.38;99692.50;1682151;83;21764;-93
2021/05/06 12:25:05;;;;;;;0.37;0.10;;;;;;;17.05;33.28;99689.80;1681853;85;21220;-92
2021/05/06 12:27:37;;;;;;;3.87;0.50;;;;;;;16.95;33.19;99681.02;1682639;85;21267;-92
2021/05/06 12:30:14;;;;;;;1.35;0.10;;;;;;;16.90;34.07;99681.77;1681070;84;21202;-94
2021/05/06 12:32:55;;;;;;;2.58;0.10;;;;;;;16.95;34.60;99677.52;1662109;86;21224;-93
2021/05/06 12:35:22;;;;;;;0.95;0.23;;;;;;;17.03;33.58;99673.09;1666734;85;21274;-94
2021/05/06 12:37:53;;;;;;;0.65;0.10;;;;;;;17.08;32.85;99682.05;1633373;85;21247;-93
2021/05/06 12:40:21;;;;;;;2.50;0.10;;;;;;;17.11;32.96;99683.42;1676702;85;21422;-94
2021/05/06 12:42:51;;;;;;;2.27;0.10;;;;;;;17.12;33.32;99684.53;1691720;83;21236;-94
2021/05/06 12:45:30;;;;;;;5.83;0.10;;;;;;;17.15;32.65;99680.52;1687760;84;21122;-92
2021/05/06 12:47:57;;;;;;;3.40;0.05;;;;;;;17.15;32.61;99684.55;1653746;86;21348;-93
2021/05/06 12:50:32;;;;;;;0.50;0.10;;;;;;;17.16;32.68;99683.50;1680077;83;21152;-93
2021/05/06 12:53:11;;;;;;;0.30;0.10;;;;;;;17.13;33.33;99683.98;1686542;83;21314;-94
2021/05/06 12:55:42;;;;;;;0.30;0.23;;;;;;;17.14;32.77;99681.59;1692891;83;21257;-93
2021/05/06 12:58:18;;;;;;;2.20;0.10;;;;;;;17.09;32.18;99691.74;1712553;82;21336;-92
2021/05/06 13:00:58;;;;;;;0.10;0.10;;;;;;;16.99;32.51;99674.62;1712450;82;21254;-92
2021/05/06 13:03:30;;;;;;;1.02;0.20;;;;;;;16.95;32.91;99672.94;1718389;81;21191;-93
2021/05/06 13:06:07;;;;;;;0.40;0.23;;;;;;;16.96;32.47;99681.31;1708316;83;21179;-93
2021/05/06 13:08:41;;;;;;;0.75;0.10;;;;;;;16.97;32.07;99676.23;1689677;83;21211;-92
2021/05/06 13:11:15;;;;;;;1.12;0.20;;;;;;;16.98;32.28;99675.69;1677246;84;21564;-94
2021/05/06 13:13:50;;;;;;;0.20;0.10;;;;;;;16.96;32.50;99680.52;1683959;83;21168;-95
2021/05/06 13:16:41;;;;;;;2.95;0.10;;;;;;;16.89;33.11;99674.75;1670678;84;21256;-93
2021/05/06 13:19:19;;;;;;;1.22;0.10;;;;;;;16.90;32.82;99668.31;1801744;77;28430;-91
2021/05/06 13:21:53;;;;;;;1.52;0.10;;;;;;;17.04;32.60;99679.55;1745587;81;21195;-91
2021/05/06 13:24:28;;;;;;;;;;;;;;;17.13;32.22;99672.67;1715964;80;21608;-94
2021/05/06 13:26:55;;;;;;;1.00;0.10;;;;;;;17.07;32.87;99674.22;1719967;83;20223;-93
2021/05/06 13:29:22;;;;;;;0.25;0.10;;;;;;;17.00;32.24;99673.03;1714729;83;21249;-91
2021/05/06 13:31:51;;;;;;;0.47;0.20;;;;;;;17.00;32.24;99673.03;1713257;83;21196;-93
2021/05/06 13:34:31;;;;;;;1.12;0.10;;;;;;;17.02;32.05;99668.75;1728134;80;21213;-92
2021/05/06 13:37:05;;;;;;;0.10;0.10;;;;;;;17.08;30.86;99673.14;1730915;81;21174;-91
2021/05/06 13:39:38;;;;;;;0.42;0.10;;;;;;;17.08;30.86;99673.14;1739451;81;21429;-92
2021/05/06 13:42:07;;;;;;;0.55;0.10;;;;;;;17.07;31.34;99672.87;1742738;81;21352;-91
2021/05/06 13:44:35;;;;;;;1.12;0.10;;;;;;;17.09;31.06;99678.28;1744366;81;21616;-92
2021/05/06 13:47:09;;;;;;;3.60;0.10;;;;;;;17.10;30.95;99677.74;1725032;81;21182;-89
2021/05/06 13:49:38;;;;;;;1.12;0.10;;;;;;;17.12;31.46;99674.27;1753649;81;21169;-92
2021/05/06 13:52:06;;;;;;;2.12;0.10;;;;;;;17.10;31.41;99675.89;1747103;79;21225;-92
2021/05/06 13:54:34;;;;;;;0.15;0.10;;;;;;;17.05;30.91;99686.58;1735852;81;21245;-91
2021/05/06 13:57:02;;;;;;;0.40;0.10;;;;;;;16.97;30.90;99680.78;1745007;79;21028;-92
2021/05/06 13:59:30;;;;;;;2.72;2.08;;;;;;;16.89;30.84;99686.05;1709084;83;21244;-91
2021/05/06 14:01:57;;;;;;;1.55;0.20;;;;;;;16.83;30.73;99682.47;1711052;83;21173;-91
2021/05/06 14:04:29;;;;;;;0.37;0.20;;;;;;;16.80;30.65;99682.94;1714434;82;21265;-90
2021/05/06 14:06:58;;;;;;;3.98;0.00;;;;;;;16.77;29.14;99676.69;1714363;83;21195;-90
2021/05/06 14:09:33;;;;;;;0.70;0.30;;;;;;;16.71;28.91;99677.69;1719834;83;21208;-93
2021/05/06 14:12:16;;;;;;;5.03;0.10;;;;;;;16.66;28.93;99681.09;1739783;80;21004;-92
2021/05/06 14:14:53;;;;;;;3.02;0.30;;;;;;;16.65;28.99;99680.82;1716643;83;21162;-95
2021/05/06 14:17:33;;;;;;;0.25;0.03;;;;;;;16.67;28.72;99681.90;1696678;83;21358;-95
2021/05/06 14:20:00;;;;;;;0.82;0.20;;;;;;;16.67;28.48;99683.24;1734425;81;21623;-91
2021/05/06 14:22:28;;;;;;;1.00;0.05;;;;;;;16.70;28.79;99680.08;1711992;83;21104;-90
2021/05/06 14:24:57;;;;;;;1.32;0.10;;;;;;;16.71;27.92;99677.14;1708666;83;21180;-92
2021/05/06 14:27:25;;;;;;;1.27;0.10;;;;;;;16.53;27.39;99646.44;1709768;83;21327;-91
2021/05/06 14:29:52;;;;;;;0.40;0.20;;;;;;;16.70;28.20;99667.97;1715332;83;21196;-92
2021/05/06 14:32:20;;;;;;;0.60;0.10;;;;;;;16.70;28.39;99676.84;1733231;81;21167;-89
2021/05/06 14:34:48;;;;;;;4.35;0.35;;;;;;;16.74;28.04;99683.91;1716022;81;21582;-91
2021/05/06 14:37:18;;;;;;;2.05;0.62;;;;;;;16.76;28.26;99679.09;1706464;82;21186;-91
2021/05/06 14:39:45;;;;;;;0.10;0.10;;;;;;;16.79;28.07;99689.91;1748330;80;21234;-90
2021/05/06 14:42:12;;;;;;;2.33;0.10;;;;;;;16.79;27.87;99691.26;1746655;80;21815;-93
2021/05/06 14:44:40;;;;;;;3.12;2.92;;;;;;;16.76;28.40;99695.23;1717295;82;21103;-92
2021/05/06 14:47:15;;;;;;;0.88;0.45;;;;;;;16.76;28.39;99681.78;1719694;82;21325;-92
2021/05/06 14:49:43;;;;;;;1.45;0.20;;;;;;;16.76;28.39;99681.78;1717098;83;21836;-92
2021/05/06 14:52:11;;;;;;;3.15;0.10;;;;;;;16.76;28.31;99690.39;1712902;82;21186;-90
2021/05/06 14:54:39;;;;;;;1.55;0.40;;;;;;;16.77;28.44;99682.08;1679154;83;21188;-89
2021/05/06 14:57:08;;;;;;;0.23;0.10;;;;;;;16.80;28.22;99684.29;1713953;82;21259;-91
2021/05/06 14:59:35;;;;;;;1.55;0.10;;;;;;;16.81;28.09;99679.17;1691782;83;21714;-90
2021/05/06 15:02:03;;;;;;;0.75;0.15;;;;;;;16.84;27.56;99683.27;1707808;81;21266;-90
2021/05/06 15:04:32;;;;;;;0.25;0.10;;;;;;;16.84;27.31;99682.77;1723655;82;21216;-87
2021/05/06 15:06:59;;;;;;;0.20;0.10;;;;;;;16.85;27.49;99679.00;1718459;82;21196;-90
2021/05/06 15:09:30;;;;;;;0.45;0.10;;;;;;;16.84;28.96;99689.49;1727642;82;21196;-90
2021/05/06 15:11:59;;;;;;;2.40;0.20;;;;;;;16.84;28.13;99685.96;1726242;82;21388;-90
2021/05/06 15:14:27;;;;;;;0.90;0.15;;;;;;;16.80;27.69;99685.63;1735613;82;21160;-90
2021/05/06 15:16:55;;;;;;;2.27;0.20;;;;;;;16.80;27.69;99685.63;1702329;82;21192;-85
2021/05/06 15:19:23;;;;;;;0.70;0.10;;;;;;;16.77;27.48;99689.34;1731627;82;21330;-90
2021/05/06 15:21:52;;;;;;;2.42;0.10;;;;;;;16.74;27.63;99694.66;1725994;82;21226;-87
2021/05/06 15:24:22;;;;;;;1.15;0.20;;;;;;;16.72;27.58;99696.25;1747504;80;21561;-87
2021/05/06 15:26:49;;;;;;;0.23;0.10;;;;;;;16.66;28.14;99705.84;1739497;81;21196;-88
2021/05/06 15:29:17;;;;;;;1.55;0.20;;;;;;;16.61;28.13;99714.62;1752669;80;21199;-81